createdAt,value
2022-11-21T00:02:11.194Z,70.01
2022-11-21T00:05:12.595Z,70.08
2022-11-21T00:08:17.114Z,70.09
2022-11-21T00:11:18.595Z,69.96
2022-11-21T00:14:20.027Z,70.29
2022-11-21T00:17:21.442Z,70.12
2022-11-21T00:20:22.888Z,69.93
2022-11-21T00:23:28.187Z,69.27
2022-11-21T00:26:29.595Z,69.84
2022-11-21T00:29:31.003Z,69.36
2022-11-21T00:32:32.407Z,69.24
2022-11-21T00:35:33.816Z,69.23
2022-11-21T00:38:35.742Z,69.07
2022-11-21T00:41:37.139Z,69.62
2022-11-21T00:44:38.525Z,69.19
2022-11-21T00:47:39.956Z,69.29
2022-11-21T00:50:41.394Z,69.52
2022-11-21T00:53:42.840Z,69.60
2022-11-21T00:56:44.257Z,69.69
2022-11-21T00:59:45.651Z,70.53
2022-11-21T01:02:47.050Z,70.46
2022-11-21T01:05:48.506Z,70.36
2022-11-21T01:08:49.910Z,70.54
2022-11-21T01:11:51.376Z,70.13
2022-11-21T01:14:52.885Z,70.83
2022-11-21T01:17:54.267Z,71.27
2022-11-21T01:21:00.212Z,70.73
2022-11-21T01:24:02.682Z,71.20
2022-11-21T01:27:04.084Z,71.48
2022-11-21T01:30:06.058Z,71.11
2022-11-21T01:33:07.471Z,71.69
2022-11-21T01:36:30.749Z,72.94
2022-11-21T01:39:32.190Z,72.69
2022-11-21T01:43:04.542Z,71.63
2022-11-21T01:46:13.835Z,71.76
2022-11-21T01:49:30.584Z,72.12
2022-11-21T01:52:32.676Z,71.93
2022-11-21T01:55:34.748Z,71.75
2022-11-21T01:58:38.716Z,71.77
2022-11-21T02:01:43.337Z,70.72
2022-11-21T02:04:45.572Z,71.37
2022-11-21T02:07:49.243Z,71.03
2022-11-21T02:11:14.136Z,71.25
2022-11-21T02:14:15.839Z,70.63
2022-11-21T02:17:20.383Z,71.00
2022-11-21T02:20:27.974Z,70.37
2022-11-21T02:23:44.215Z,71.09
2022-11-21T02:26:48.133Z,71.44
2022-11-21T02:29:49.540Z,71.65
2022-11-21T02:32:50.938Z,70.83
2022-11-21T02:35:59.691Z,71.20
2022-11-21T02:39:01.511Z,71.33
2022-11-21T02:42:14.983Z,71.46
2022-11-21T02:45:22.675Z,72.39
2022-11-21T02:48:24.304Z,73.75
2022-11-21T02:51:25.713Z,72.97
2022-11-21T02:54:27.367Z,72.73
2022-11-21T02:57:29.068Z,73.06
2022-11-21T03:00:30.604Z,73.16
2022-11-21T03:03:31.996Z,72.94
2022-11-21T03:06:33.451Z,72.83
2022-11-21T03:09:34.916Z,73.03
2022-11-21T03:12:40.652Z,72.93
2022-11-21T03:15:42.043Z,72.66
2022-11-21T03:18:43.463Z,72.58
2022-11-21T03:21:44.901Z,73.10
2022-11-21T03:24:46.370Z,72.37
2022-11-21T03:27:52.123Z,72.89
2022-11-21T03:30:53.517Z,73.13
2022-11-21T03:33:54.916Z,73.30
2022-11-21T03:36:56.346Z,73.12
2022-11-21T03:39:57.752Z,72.25
2022-11-21T03:43:05.280Z,72.47
2022-11-21T03:46:06.696Z,72.31
2022-11-21T03:49:08.870Z,72.43
2022-11-21T03:52:10.274Z,73.09
2022-11-21T03:55:11.745Z,72.84
2022-11-21T03:58:13.175Z,72.72
2022-11-21T04:01:15.519Z,73.62
2022-11-21T04:04:16.913Z,73.41
2022-11-21T04:07:18.368Z,73.37
2022-11-21T04:10:20.840Z,75.33
2022-11-21T04:13:22.244Z,75.14
2022-11-21T04:16:23.636Z,75.31
2022-11-21T04:19:25.045Z,74.36
2022-11-21T04:22:26.516Z,74.79
2022-11-21T04:25:27.916Z,73.31
2022-11-21T04:28:29.589Z,72.72
2022-11-21T04:31:31.005Z,72.54
2022-11-21T04:34:32.446Z,72.70
2022-11-21T04:37:33.844Z,73.27
2022-11-21T04:40:36.050Z,72.40
2022-11-21T04:43:37.482Z,73.32
2022-11-21T04:46:38.892Z,73.23
2022-11-21T04:49:40.371Z,72.89
2022-11-21T04:52:41.997Z,72.97
2022-11-21T04:55:43.411Z,72.07
2022-11-21T04:58:45.037Z,72.34
2022-11-21T05:01:46.509Z,72.24
2022-11-21T05:04:48.240Z,73.02
2022-11-21T05:07:49.639Z,72.46
2022-11-21T05:11:09.765Z,72.42
2022-11-21T05:14:11.207Z,72.43
2022-11-21T05:17:12.601Z,71.87
2022-11-21T05:20:15.062Z,72.36
2022-11-21T05:23:16.535Z,72.75
2022-11-21T05:26:17.930Z,72.08
2022-11-21T05:29:22.654Z,71.92
2022-11-21T05:32:26.635Z,72.08
2022-11-21T05:35:28.067Z,72.25
2022-11-21T05:38:29.455Z,72.34
2022-11-21T05:41:30.875Z,72.10
2022-11-21T05:44:32.291Z,72.09
2022-11-21T05:47:33.761Z,72.01
2022-11-21T05:50:38.162Z,71.42
2022-11-21T05:53:39.572Z,71.69
2022-11-21T05:56:41.075Z,71.00
2022-11-21T05:59:42.468Z,71.19
2022-11-21T06:03:16.091Z,72.00
2022-11-21T06:06:22.173Z,71.13
2022-11-21T06:09:26.185Z,71.39
2022-11-21T06:12:27.578Z,71.17
2022-11-21T06:15:29.388Z,70.70
2022-11-21T06:18:33.640Z,70.43
2022-11-21T06:21:37.197Z,70.42
2022-11-21T06:24:38.600Z,70.56
2022-11-21T06:27:40.047Z,70.90
2022-11-21T06:30:41.429Z,70.57
2022-11-21T06:33:43.904Z,70.66
2022-11-21T06:36:45.821Z,70.42
2022-11-21T06:39:48.654Z,70.10
2022-11-21T06:42:50.131Z,70.13
2022-11-21T06:45:51.564Z,70.30
2022-11-21T06:48:53.767Z,70.13
2022-11-21T06:51:55.215Z,69.86
2022-11-21T06:54:56.628Z,70.22
2022-11-21T06:57:59.645Z,69.20
2022-11-21T07:01:05.834Z,70.48
2022-11-21T07:04:07.256Z,70.29
2022-11-21T07:07:08.718Z,71.08
2022-11-21T07:10:10.417Z,70.18
2022-11-21T07:13:23.659Z,70.11
2022-11-21T07:16:26.215Z,69.78
2022-11-21T07:19:28.133Z,70.06
2022-11-21T07:22:29.759Z,70.27
2022-11-21T07:25:36.302Z,70.52
2022-11-21T07:28:38.245Z,70.01
2022-11-21T07:31:39.675Z,69.38
2022-11-21T07:34:41.169Z,70.60
2022-11-21T07:37:42.620Z,70.56
2022-11-21T07:40:44.158Z,70.46
2022-11-21T07:43:45.605Z,70.85
2022-11-21T07:46:46.991Z,69.47
2022-11-21T07:49:48.414Z,69.30
2022-11-21T07:52:49.820Z,69.38
2022-11-21T07:55:51.238Z,69.27
2022-11-21T07:58:53.085Z,69.29
2022-11-21T08:01:54.550Z,68.54
2022-11-21T08:04:56.036Z,68.71
2022-11-21T08:07:57.431Z,68.00
2022-11-21T08:10:58.834Z,67.60
2022-11-21T08:14:00.240Z,67.23
2022-11-21T08:17:01.851Z,67.38
2022-11-21T08:20:04.277Z,67.74
2022-11-21T08:23:06.481Z,66.86
2022-11-21T08:26:10.053Z,67.42
2022-11-21T08:29:12.541Z,67.10
2022-11-21T08:32:14.646Z,67.90
2022-11-21T08:35:16.054Z,67.47
2022-11-21T08:38:17.586Z,67.75
2022-11-21T08:41:37.659Z,68.04
2022-11-21T08:44:39.565Z,67.80
2022-11-21T08:47:41.368Z,68.78
2022-11-21T08:50:42.835Z,68.19
2022-11-21T08:53:44.210Z,67.92
2022-11-21T08:56:45.799Z,68.04
2022-11-21T08:59:47.343Z,68.10
2022-11-21T09:02:48.710Z,67.55
2022-11-21T09:05:50.106Z,67.70
2022-11-21T09:08:51.627Z,66.50
2022-11-21T09:11:53.234Z,66.01
2022-11-21T09:15:13.485Z,66.65
2022-11-21T09:18:14.878Z,66.50
2022-11-21T09:21:17.390Z,67.33
2022-11-21T09:24:19.410Z,67.42
2022-11-21T09:27:20.824Z,66.58
2022-11-21T09:30:22.267Z,66.91
2022-11-21T09:33:23.659Z,66.48
2022-11-21T09:36:25.096Z,66.45
2022-11-21T09:39:26.759Z,66.05
2022-11-21T09:42:57.250Z,65.45
2022-11-21T09:46:06.058Z,64.05
2022-11-21T09:49:12.296Z,63.05
2022-11-21T09:52:17.531Z,62.73
2022-11-21T09:55:40.993Z,62.43
2022-11-21T09:58:47.475Z,62.88
2022-11-21T10:01:48.945Z,61.89
2022-11-21T10:04:52.003Z,61.21
2022-11-21T10:07:58.614Z,61.07
2022-11-21T10:11:20.469Z,60.64
2022-11-21T10:14:27.942Z,60.42
2022-11-21T10:17:48.338Z,61.25
2022-11-21T10:20:56.732Z,59.63
2022-11-21T10:24:20.059Z,59.05
2022-11-21T10:27:31.638Z,57.87
2022-11-21T10:30:33.527Z,57.53
2022-11-21T10:33:40.192Z,59.28
2022-11-21T10:36:47.668Z,59.15
2022-11-21T10:39:51.107Z,58.96
2022-11-21T10:43:20.728Z,58.99
2022-11-21T10:46:22.156Z,58.24
2022-11-21T10:49:29.844Z,57.40
2022-11-21T10:52:35.309Z,58.01
2022-11-21T10:55:55.498Z,58.60
2022-11-21T10:58:59.192Z,59.69
2022-11-21T11:02:12.852Z,60.66
2022-11-21T11:05:18.077Z,60.04
2022-11-21T11:08:19.481Z,59.44
2022-11-21T11:11:22.499Z,59.64
2022-11-21T11:14:33.343Z,59.31
2022-11-21T11:17:34.767Z,59.37
2022-11-21T11:20:45.003Z,58.83
2022-11-21T11:23:48.441Z,58.27
2022-11-21T11:26:51.625Z,57.54
2022-11-21T11:29:53.245Z,59.43
2022-11-21T11:32:54.905Z,57.92
2022-11-21T11:36:36.837Z,56.92
2022-11-21T11:39:46.246Z,56.96
2022-11-21T11:43:17.301Z,57.55
2022-11-21T11:46:44.599Z,57.19
2022-11-21T11:50:11.354Z,56.46
2022-11-21T11:53:22.958Z,57.10
2022-11-21T11:56:37.930Z,57.64
2022-11-21T11:59:45.349Z,56.89
2022-11-21T12:03:00.123Z,57.91
2022-11-21T12:10:33.666Z,56.98
2022-11-21T12:13:37.093Z,57.35
2022-11-21T12:16:41.210Z,57.42
2022-11-21T12:19:42.708Z,57.59
2022-11-21T12:22:47.149Z,56.77
2022-11-21T12:25:57.857Z,56.96
2022-11-21T12:29:24.145Z,56.36
2022-11-21T12:32:40.837Z,57.07
2022-11-21T12:36:16.742Z,56.92
2022-11-21T12:39:44.962Z,56.69
2022-11-21T12:43:05.227Z,56.41
2022-11-21T12:46:20.581Z,56.94
2022-11-21T12:50:11.255Z,56.61
2022-11-21T12:54:10.857Z,56.36
2022-11-21T12:57:21.013Z,56.73
2022-11-21T13:00:29.307Z,56.82
2022-11-21T13:03:39.829Z,56.60
2022-11-21T13:06:44.357Z,56.71
2022-11-21T13:09:49.074Z,56.00
2022-11-21T13:13:02.715Z,55.75
2022-11-21T13:16:12.676Z,56.88
2022-11-21T13:19:17.190Z,56.40
2022-11-21T13:22:36.931Z,56.93
2022-11-21T13:25:40.390Z,56.53
2022-11-21T13:28:46.184Z,56.17
2022-11-21T13:31:48.111Z,57.28
2022-11-21T13:34:49.637Z,55.90
2022-11-21T13:38:08.523Z,56.26
2022-11-21T13:41:33.120Z,57.04
2022-11-21T13:44:41.391Z,56.30
2022-11-21T13:48:03.517Z,57.36
2022-11-21T13:51:07.656Z,56.60
2022-11-21T13:54:42.211Z,57.12
2022-11-21T13:58:02.516Z,57.42
2022-11-21T14:01:45.603Z,58.22
2022-11-21T14:05:13.170Z,58.64
2022-11-21T14:08:17.990Z,58.28
2022-11-21T14:11:40.105Z,59.56
2022-11-21T14:14:51.701Z,58.30
2022-11-21T14:17:58.318Z,59.08
2022-11-21T14:21:01.574Z,58.28
2022-11-21T14:24:13.346Z,59.27
2022-11-21T14:27:25.597Z,58.81
2022-11-21T14:30:30.115Z,58.88
2022-11-21T14:33:36.425Z,59.09
2022-11-21T14:36:38.591Z,59.20
2022-11-21T14:39:44.517Z,58.46
2022-11-21T14:42:47.114Z,58.39
2022-11-21T14:45:49.522Z,57.46
2022-11-21T14:48:52.363Z,57.35
2022-11-21T14:51:58.948Z,57.91
2022-11-21T14:58:28.280Z,58.37
2022-11-21T15:01:31.791Z,60.02
2022-11-21T15:04:36.129Z,60.79
2022-11-21T15:07:43.644Z,61.07
2022-11-21T15:10:45.663Z,61.25
2022-11-21T15:17:18.760Z,61.60
2022-11-21T15:20:21.053Z,62.91
2022-11-21T15:23:26.656Z,62.88
2022-11-21T15:26:33.800Z,63.75
2022-11-21T15:29:35.200Z,63.44
2022-11-21T15:32:59.679Z,62.96
2022-11-21T15:36:14.997Z,61.98
2022-11-21T15:39:22.359Z,63.08
2022-11-21T15:42:33.500Z,63.64
2022-11-21T15:45:35.023Z,63.15
2022-11-21T15:48:36.696Z,63.10
2022-11-21T15:55:13.581Z,63.79
2022-11-21T15:58:17.584Z,63.79
2022-11-21T16:01:21.863Z,63.66
2022-11-21T16:04:25.996Z,63.69
2022-11-21T16:07:27.761Z,62.41
2022-11-21T16:10:29.298Z,62.10
2022-11-21T16:13:30.788Z,60.21
2022-11-21T16:16:41.489Z,57.42
2022-11-21T16:19:45.507Z,57.00
2022-11-21T16:22:47.969Z,57.79
2022-11-21T16:25:54.255Z,57.33
2022-11-21T16:28:56.731Z,59.43
2022-11-21T16:31:58.187Z,58.11
2022-11-21T16:34:59.889Z,59.78
2022-11-21T16:38:01.272Z,60.81
2022-11-21T16:41:06.843Z,60.69
2022-11-21T16:44:15.907Z,61.46
2022-11-21T16:47:17.291Z,60.87
2022-11-21T16:50:18.795Z,60.77
2022-11-21T16:53:20.241Z,61.30
2022-11-21T16:56:21.698Z,60.43
2022-11-21T16:59:23.176Z,61.95
2022-11-21T17:02:24.636Z,62.53
2022-11-21T17:05:26.285Z,62.08
2022-11-21T17:08:28.556Z,61.64
2022-11-21T17:11:31.330Z,61.92
2022-11-21T17:14:32.789Z,60.06
2022-11-21T17:17:34.431Z,61.99
2022-11-21T17:20:35.859Z,60.40
2022-11-21T17:23:40.451Z,60.31
2022-11-21T17:26:41.853Z,60.13
2022-11-21T17:29:43.361Z,60.33
2022-11-21T17:32:44.909Z,59.47
2022-11-21T17:35:46.332Z,60.30
2022-11-21T17:38:48.387Z,60.57
2022-11-21T17:41:49.925Z,60.83
2022-11-21T17:44:51.408Z,60.73
2022-11-21T17:47:52.916Z,62.94
2022-11-21T17:51:16.321Z,61.86
2022-11-21T17:54:18.648Z,61.80
2022-11-21T17:57:20.070Z,60.78
2022-11-21T18:00:21.583Z,60.66
2022-11-21T18:03:23.664Z,61.42
2022-11-21T18:06:28.142Z,61.26
2022-11-21T18:09:29.813Z,60.84
2022-11-21T18:12:31.534Z,60.14
2022-11-21T18:15:33.777Z,60.11
2022-11-21T18:18:36.942Z,61.86
2022-11-21T18:21:38.494Z,61.41
2022-11-21T18:24:39.902Z,62.38
2022-11-21T18:27:41.404Z,61.40
2022-11-21T18:30:42.809Z,60.57
2022-11-21T18:33:44.797Z,60.39
2022-11-21T18:36:47.618Z,60.76
2022-11-21T18:39:49.108Z,61.43
2022-11-21T18:42:51.926Z,61.56
2022-11-21T18:45:53.369Z,61.88
2022-11-21T18:49:02.772Z,63.28
2022-11-21T18:52:06.078Z,62.23
2022-11-21T18:55:07.903Z,63.27
2022-11-21T18:58:09.655Z,63.46
2022-11-21T19:01:22.531Z,63.23
2022-11-21T19:04:25.542Z,62.08
2022-11-21T19:07:27.125Z,62.56
2022-11-21T19:10:42.749Z,63.18
2022-11-21T19:13:45.040Z,63.52
2022-11-21T19:16:46.466Z,63.97
2022-11-21T19:19:48.478Z,64.12
2022-11-21T19:22:50.144Z,63.83
2022-11-21T19:25:51.571Z,63.70
2022-11-21T19:28:53.131Z,65.15
2022-11-21T19:31:55.722Z,64.26
2022-11-21T19:34:57.180Z,65.01
2022-11-21T19:37:58.788Z,64.97
2022-11-21T19:41:15.794Z,66.25
2022-11-21T19:44:17.196Z,66.78
2022-11-21T19:47:18.619Z,65.80
2022-11-21T19:50:20.335Z,66.21
2022-11-21T19:53:21.773Z,66.99
2022-11-21T19:56:25.086Z,68.24
2022-11-21T19:59:27.502Z,68.18
2022-11-21T20:02:29.641Z,68.50
2022-11-21T20:05:31.072Z,68.46
2022-11-21T20:08:32.902Z,67.29
2022-11-21T20:11:35.266Z,67.67
2022-11-21T20:14:36.635Z,68.04
2022-11-21T20:17:38.078Z,67.60
2022-11-21T20:20:39.583Z,67.76
2022-11-21T20:23:41.499Z,68.78
2022-11-21T20:26:44.101Z,69.17
2022-11-21T20:29:45.512Z,68.78
2022-11-21T20:32:47.017Z,68.70
2022-11-21T20:35:48.418Z,68.96
2022-11-21T20:38:55.064Z,69.70
2022-11-21T20:41:56.542Z,69.32
2022-11-21T20:45:54.267Z,68.68
2022-11-21T20:48:20.582Z,69.85
2022-11-21T20:54:44.332Z,69.88
2022-11-21T20:57:45.778Z,70.10
2022-11-21T21:00:47.163Z,70.34
2022-11-21T21:03:48.582Z,70.43
2022-11-21T21:06:49.989Z,69.72
2022-11-21T21:09:51.647Z,69.27
2022-11-21T21:12:53.395Z,69.76
2022-11-21T21:15:54.907Z,69.96
2022-11-21T21:18:56.931Z,69.95
2022-11-21T21:21:58.401Z,70.32
2022-11-21T21:24:59.846Z,69.69
2022-11-21T21:28:01.433Z,69.26
2022-11-21T21:31:08.073Z,70.13
2022-11-21T21:34:10.006Z,69.82
2022-11-21T21:37:11.511Z,69.42
2022-11-21T21:40:12.951Z,69.82
2022-11-21T21:43:14.338Z,69.44
2022-11-21T21:46:17.666Z,69.22
2022-11-21T21:49:19.119Z,69.65
2022-11-21T21:52:20.570Z,69.17
2022-11-21T21:55:21.991Z,69.77
2022-11-21T21:58:23.395Z,69.31
2022-11-21T22:01:29.639Z,69.86
2022-11-21T22:04:33.060Z,69.18
2022-11-21T22:07:34.617Z,69.07
2022-11-21T22:10:36.086Z,69.19
2022-11-21T22:13:38.770Z,68.82
2022-11-21T22:16:41.439Z,69.48
2022-11-21T22:19:43.236Z,69.42
2022-11-21T22:22:45.882Z,70.12
2022-11-21T22:25:47.407Z,68.88
2022-11-21T22:28:48.878Z,68.51
2022-11-21T22:31:50.892Z,68.54
2022-11-21T22:34:52.538Z,68.94
2022-11-21T22:37:53.945Z,69.41
2022-11-21T22:41:13.645Z,69.68
2022-11-21T22:44:15.117Z,69.05
2022-11-21T22:47:16.583Z,68.92
2022-11-21T22:50:17.964Z,68.82
2022-11-21T22:53:19.469Z,68.83
2022-11-21T22:56:23.381Z,69.55
2022-11-21T22:59:24.825Z,69.36
2022-11-21T23:02:26.273Z,68.68
2022-11-21T23:05:27.688Z,68.84
2022-11-21T23:08:30.805Z,69.03
2022-11-21T23:11:39.245Z,69.09
2022-11-21T23:14:41.955Z,69.10
2022-11-21T23:17:46.056Z,69.12
2022-11-21T23:20:49.969Z,69.08
2022-11-21T23:23:51.542Z,69.61
2022-11-21T23:26:52.961Z,69.65
2022-11-21T23:29:54.351Z,68.90
2022-11-21T23:32:55.762Z,69.31
2022-11-21T23:35:57.200Z,69.02
2022-11-21T23:38:58.616Z,69.19
2022-11-21T23:42:00.029Z,68.84
2022-11-21T23:45:01.430Z,69.24
2022-11-21T23:48:02.887Z,70.00
2022-11-21T23:51:04.309Z,70.23
2022-11-21T23:54:05.735Z,69.86
2022-11-21T23:57:07.201Z,69.83
